createdAt,value
2022-12-18T00:02:07.366Z,5.42
2022-12-18T00:06:10.169Z,5.40
2022-12-18T00:10:15.284Z,5.45
2022-12-18T00:14:18.077Z,5.52
2022-12-18T00:18:20.844Z,5.61
2022-12-18T00:22:23.357Z,5.63
2022-12-18T00:26:37.137Z,5.74
2022-12-18T00:30:40.954Z,5.73
2022-12-18T00:34:44.060Z,5.75
2022-12-18T00:38:47.520Z,5.77
2022-12-18T00:42:59.260Z,5.72
2022-12-18T00:47:01.572Z,5.50
2022-12-18T00:51:04.244Z,5.37
2022-12-18T00:55:07.042Z,5.35
2022-12-18T00:59:09.945Z,5.12
2022-12-18T01:03:15.484Z,5.22
2022-12-18T01:07:19.486Z,5.35
2022-12-18T01:11:22.569Z,5.30
2022-12-18T01:15:24.925Z,5.21
2022-12-18T01:19:27.305Z,5.05
2022-12-18T01:23:30.426Z,5.02
2022-12-18T01:27:34.738Z,5.05
2022-12-18T01:31:39.498Z,4.96
2022-12-18T01:35:43.742Z,4.91
2022-12-18T01:39:45.920Z,4.77
2022-12-18T01:43:59.310Z,4.76
2022-12-18T01:48:08.696Z,4.69
2022-12-18T01:52:10.863Z,4.79
2022-12-18T01:56:23.161Z,4.78
2022-12-18T02:00:29.065Z,4.74
2022-12-18T02:04:32.193Z,4.75
2022-12-18T02:08:47.510Z,4.70
2022-12-18T02:12:58.093Z,4.56
2022-12-18T02:17:48.397Z,4.52
2022-12-18T02:22:19.513Z,4.49
2022-12-18T02:26:35.805Z,4.46
2022-12-18T02:30:40.215Z,4.54
2022-12-18T02:34:47.324Z,4.61
2022-12-18T02:38:54.617Z,4.74
2022-12-18T02:43:13.811Z,4.96
2022-12-18T02:47:20.651Z,4.92
2022-12-18T02:51:35.344Z,4.88
2022-12-18T02:55:37.723Z,4.93
2022-12-18T02:59:57.204Z,4.89
2022-12-18T03:04:09.103Z,4.78
2022-12-18T03:08:32.698Z,4.79
2022-12-18T03:12:52.849Z,4.69
2022-12-18T03:17:02.048Z,4.69
2022-12-18T03:21:07.851Z,4.68
2022-12-18T03:25:15.309Z,4.50
2022-12-18T03:29:23.955Z,4.38
2022-12-18T03:33:39.479Z,4.47
2022-12-18T03:37:42.123Z,4.48
2022-12-18T03:41:46.613Z,4.46
2022-12-18T03:46:28.695Z,4.10
2022-12-18T03:50:43.104Z,4.06
2022-12-18T03:54:47.430Z,4.13
2022-12-18T03:58:54.475Z,4.27
2022-12-18T04:03:02.976Z,4.46
2022-12-18T04:07:12.117Z,4.40
2022-12-18T04:11:14.785Z,4.52
2022-12-18T04:15:17.342Z,4.46
2022-12-18T04:19:19.950Z,4.47
2022-12-18T04:23:25.236Z,4.60
2022-12-18T04:27:29.607Z,4.58
2022-12-18T04:31:35.113Z,4.58
2022-12-18T04:35:38.706Z,4.55
2022-12-18T04:39:40.853Z,4.48
2022-12-18T04:43:50.182Z,4.40
2022-12-18T04:47:52.285Z,4.27
2022-12-18T04:51:55.253Z,4.33
2022-12-18T04:56:13.758Z,4.19
2022-12-18T05:00:17.848Z,4.14
2022-12-18T05:04:20.300Z,4.06
2022-12-18T05:08:23.065Z,4.09
2022-12-18T05:12:25.516Z,4.06
2022-12-18T05:16:27.781Z,3.78
2022-12-18T05:20:30.039Z,3.82
2022-12-18T05:24:32.142Z,3.80
2022-12-18T05:28:36.435Z,3.87
2022-12-18T05:32:39.275Z,3.83
2022-12-18T05:36:41.526Z,3.82
2022-12-18T05:40:44.712Z,3.83
2022-12-18T05:44:46.911Z,3.75
2022-12-18T05:48:51.350Z,3.76
2022-12-18T05:52:53.505Z,3.74
2022-12-18T05:56:55.778Z,3.75
2022-12-18T06:00:58.333Z,3.69
2022-12-18T06:05:00.384Z,3.66
2022-12-18T06:09:02.510Z,3.53
2022-12-18T06:13:05.351Z,3.49
2022-12-18T06:17:07.760Z,3.29
2022-12-18T06:21:10.095Z,3.23
2022-12-18T06:25:12.976Z,3.38
2022-12-18T06:29:16.047Z,3.36
2022-12-18T06:33:18.203Z,3.44
2022-12-18T06:37:20.728Z,3.46
2022-12-18T06:41:23.272Z,3.58
2022-12-18T06:45:25.558Z,3.48
2022-12-18T06:49:30.560Z,3.56
2022-12-18T06:53:33.454Z,3.51
2022-12-18T06:57:35.601Z,3.46
2022-12-18T07:01:39.540Z,3.40
2022-12-18T07:05:42.923Z,3.46
2022-12-18T07:09:44.973Z,3.45
2022-12-18T07:13:47.730Z,3.66
2022-12-18T07:17:49.834Z,3.86
2022-12-18T07:21:52.641Z,4.05
2022-12-18T07:25:54.822Z,4.01
2022-12-18T07:29:57.073Z,4.39
2022-12-18T07:34:26.167Z,4.53
2022-12-18T07:38:29.532Z,4.58
2022-12-18T07:42:32.057Z,4.81
2022-12-18T07:46:34.139Z,5.11
2022-12-18T07:50:36.379Z,5.31
2022-12-18T07:54:39.661Z,5.47
2022-12-18T07:58:41.987Z,5.66
2022-12-18T08:02:44.307Z,5.86
2022-12-18T08:06:48.170Z,6.01
2022-12-18T08:10:50.685Z,6.16
2022-12-18T08:14:52.977Z,6.30
2022-12-18T08:18:55.734Z,6.48
2022-12-18T08:22:59.137Z,6.64
2022-12-18T08:31:24.609Z,6.81
2022-12-18T08:35:29.526Z,6.93
2022-12-18T08:39:33.857Z,7.08
2022-12-18T08:43:54.872Z,7.28
2022-12-18T08:47:57.167Z,7.45
2022-12-18T08:51:59.344Z,7.51
2022-12-18T08:56:01.499Z,7.60
2022-12-18T09:00:05.217Z,7.71
2022-12-18T09:04:07.961Z,7.90
2022-12-18T09:08:10.557Z,8.07
2022-12-18T09:12:12.796Z,8.22
2022-12-18T09:16:15.546Z,8.32
2022-12-18T09:20:18.015Z,8.40
2022-12-18T09:24:20.664Z,8.54
2022-12-18T09:28:22.747Z,8.62
2022-12-18T09:32:25.051Z,8.80
2022-12-18T09:36:27.817Z,8.89
2022-12-18T09:40:36.202Z,9.01
2022-12-18T09:44:45.639Z,9.10
2022-12-18T09:48:52.347Z,9.24
2022-12-18T09:52:57.865Z,9.40
2022-12-18T09:57:00.100Z,9.50
2022-12-18T10:01:11.893Z,9.66
2022-12-18T10:05:31.584Z,9.91
2022-12-18T10:09:38.085Z,10.13
2022-12-18T10:14:29.251Z,10.19
2022-12-18T10:19:19.442Z,10.48
2022-12-18T10:23:48.327Z,10.66
2022-12-18T10:27:56.532Z,10.80
2022-12-18T10:31:58.698Z,10.81
2022-12-18T10:36:01.341Z,10.82
2022-12-18T10:40:18.205Z,10.83
2022-12-18T10:44:25.448Z,10.84
2022-12-18T10:48:36.210Z,10.94
2022-12-18T10:52:45.088Z,11.04
2022-12-18T10:56:50.029Z,10.98
2022-12-18T11:01:13.544Z,10.99
2022-12-18T11:05:38.085Z,11.10
2022-12-18T11:09:41.498Z,11.18
2022-12-18T11:14:01.937Z,11.20
2022-12-18T11:23:24.686Z,11.35
2022-12-18T11:27:29.429Z,11.40
2022-12-18T11:31:34.540Z,11.43
2022-12-18T11:35:54.979Z,11.43
2022-12-18T11:40:02.355Z,11.50
2022-12-18T11:44:09.128Z,11.55
2022-12-18T11:48:22.739Z,11.54
2022-12-18T11:52:50.405Z,11.57
2022-12-18T11:57:15.444Z,11.61
2022-12-18T12:01:51.966Z,11.69
2022-12-18T12:06:15.689Z,11.76
2022-12-18T12:10:40.659Z,11.85
2022-12-18T12:15:37.223Z,11.80
2022-12-18T12:19:44.763Z,11.89
2022-12-18T12:23:56.251Z,11.93
2022-12-18T12:28:50.289Z,12.00
2022-12-18T12:33:03.980Z,12.05
2022-12-18T12:37:21.353Z,12.02
2022-12-18T12:41:46.134Z,12.06
2022-12-18T12:52:46.142Z,12.15
2022-12-18T12:57:07.486Z,12.28
2022-12-18T13:01:42.839Z,12.17
2022-12-18T13:05:55.899Z,12.25
2022-12-18T13:10:27.196Z,12.19
2022-12-18T13:14:35.733Z,12.19
2022-12-18T13:18:38.158Z,12.16
2022-12-18T13:22:49.504Z,12.15
2022-12-18T13:26:51.763Z,12.18
2022-12-18T13:30:58.522Z,12.21
2022-12-18T13:35:27.520Z,12.14
2022-12-18T13:39:35.860Z,12.14
2022-12-18T13:43:46.242Z,12.89
2022-12-18T13:47:49.071Z,13.06
2022-12-18T13:51:55.079Z,12.25
2022-12-18T13:55:58.107Z,12.11
2022-12-18T14:00:25.781Z,12.07
2022-12-18T14:04:30.634Z,12.05
2022-12-18T14:08:42.627Z,12.04
2022-12-18T14:13:01.140Z,11.96
2022-12-18T14:17:11.292Z,11.93
2022-12-18T14:21:35.550Z,11.83
2022-12-18T14:25:37.820Z,11.78
2022-12-18T14:29:45.267Z,11.75
2022-12-18T14:33:47.786Z,11.68
2022-12-18T14:37:49.874Z,11.58
2022-12-18T14:41:53.724Z,11.50
2022-12-18T14:45:57.360Z,11.43
2022-12-18T14:49:59.700Z,11.36
2022-12-18T14:54:16.152Z,11.24
2022-12-18T14:58:19.359Z,11.26
2022-12-18T15:02:27.988Z,11.16
2022-12-18T15:06:36.306Z,10.99
2022-12-18T15:10:48.834Z,10.91
2022-12-18T15:14:53.246Z,10.76
2022-12-18T15:18:58.122Z,10.58
2022-12-18T15:23:00.384Z,10.43
2022-12-18T15:27:02.668Z,10.23
2022-12-18T15:31:25.118Z,10.00
2022-12-18T15:35:27.313Z,9.95
2022-12-18T15:39:29.408Z,9.80
2022-12-18T15:43:37.985Z,9.64
2022-12-18T15:47:40.535Z,9.51
2022-12-18T15:51:43.007Z,9.39
2022-12-18T15:56:03.826Z,9.22
2022-12-18T16:00:07.139Z,9.11
2022-12-18T16:04:14.261Z,9.02
2022-12-18T16:08:17.478Z,8.91
2022-12-18T16:12:23.625Z,8.79
2022-12-18T16:16:26.045Z,8.64
2022-12-18T16:20:29.640Z,8.54
2022-12-18T16:24:34.589Z,8.48
2022-12-18T16:28:36.864Z,8.47
2022-12-18T16:32:39.484Z,8.48
2022-12-18T16:36:42.009Z,8.39
2022-12-18T16:41:04.194Z,8.32
2022-12-18T16:45:10.790Z,8.17
2022-12-18T16:49:14.555Z,8.06
2022-12-18T16:53:16.697Z,7.97
2022-12-18T16:57:21.607Z,7.81
2022-12-18T17:01:32.291Z,7.74
2022-12-18T17:05:34.530Z,7.91
2022-12-18T17:09:37.865Z,7.75
2022-12-18T17:13:40.483Z,7.74
2022-12-18T17:17:43.240Z,7.66
2022-12-18T17:21:52.072Z,7.66
2022-12-18T17:26:02.082Z,7.79
2022-12-18T17:30:05.446Z,7.69
2022-12-18T17:34:08.058Z,7.57
2022-12-18T17:38:10.579Z,7.53
2022-12-18T17:42:15.347Z,7.54
2022-12-18T17:46:18.036Z,7.57
2022-12-18T17:50:20.500Z,7.48
2022-12-18T17:54:22.707Z,7.57
2022-12-18T17:58:25.378Z,7.68
2022-12-18T18:02:27.758Z,7.70
2022-12-18T18:06:30.596Z,7.64
2022-12-18T18:10:38.748Z,7.49
2022-12-18T18:14:40.894Z,7.34
2022-12-18T18:18:43.292Z,7.44
2022-12-18T18:22:45.712Z,7.10
2022-12-18T18:26:48.027Z,7.06
2022-12-18T18:30:50.108Z,7.03
2022-12-18T18:34:52.570Z,6.90
2022-12-18T18:38:55.399Z,6.84
2022-12-18T18:42:58.902Z,6.81
2022-12-18T18:47:02.166Z,6.75
2022-12-18T18:51:09.267Z,6.68
2022-12-18T18:55:19.496Z,6.74
2022-12-18T18:59:31.933Z,6.45
2022-12-18T19:03:35.698Z,6.36
2022-12-18T19:07:37.897Z,6.18
2022-12-18T19:12:18.300Z,6.08
2022-12-18T19:16:21.433Z,5.91
2022-12-18T19:20:26.086Z,5.87
2022-12-18T19:24:29.041Z,5.81
2022-12-18T19:28:31.344Z,5.69
2022-12-18T19:32:34.320Z,5.61
2022-12-18T19:36:38.497Z,5.36
2022-12-18T19:40:41.792Z,5.39
2022-12-18T19:44:43.926Z,5.36
2022-12-18T19:48:47.782Z,5.33
2022-12-18T19:52:50.110Z,5.18
2022-12-18T19:56:53.988Z,5.07
2022-12-18T20:00:56.430Z,4.97
2022-12-18T20:04:59.979Z,5.02
2022-12-18T20:09:05.532Z,4.96
2022-12-18T20:13:07.849Z,4.87
2022-12-18T20:17:10.274Z,4.73
2022-12-18T20:21:14.175Z,4.75
2022-12-18T20:25:18.186Z,4.60
2022-12-18T20:29:20.522Z,4.65
2022-12-18T20:33:22.562Z,4.62
2022-12-18T20:37:24.832Z,4.54
2022-12-18T20:41:31.996Z,4.52
2022-12-18T20:45:40.762Z,4.36
2022-12-18T20:49:45.753Z,4.34
2022-12-18T20:53:49.026Z,4.27
2022-12-18T20:57:52.823Z,4.25
2022-12-18T21:01:55.678Z,4.15
2022-12-18T21:05:58.209Z,4.18
2022-12-18T21:10:00.333Z,3.98
2022-12-18T21:14:23.214Z,3.98
2022-12-18T21:18:25.361Z,3.97
2022-12-18T21:22:29.137Z,3.87
2022-12-18T21:26:32.091Z,3.88
2022-12-18T21:30:34.381Z,3.73
2022-12-18T21:34:37.244Z,3.81
2022-12-18T21:38:39.371Z,3.73
2022-12-18T21:43:00.167Z,3.63
2022-12-18T21:47:13.806Z,3.61
2022-12-18T21:51:24.573Z,3.57
2022-12-18T21:55:26.969Z,3.56
2022-12-18T21:59:30.727Z,3.39
2022-12-18T22:03:33.126Z,3.39
2022-12-18T22:07:35.310Z,3.29
2022-12-18T22:11:37.898Z,3.30
2022-12-18T22:15:40.061Z,3.36
2022-12-18T22:19:43.213Z,3.34
2022-12-18T22:23:53.258Z,3.36
2022-12-18T22:28:13.897Z,2.92
2022-12-18T22:32:22.240Z,2.95
2022-12-18T22:36:59.401Z,3.12
2022-12-18T22:41:01.526Z,3.01
2022-12-18T22:45:03.769Z,2.95
2022-12-18T22:49:06.621Z,2.91
2022-12-18T22:53:09.236Z,2.96
2022-12-18T22:57:11.480Z,3.02
2022-12-18T23:01:25.763Z,2.87
2022-12-18T23:05:29.770Z,2.86
2022-12-18T23:09:32.536Z,2.89
2022-12-18T23:13:34.951Z,3.04
2022-12-18T23:17:37.048Z,3.03
2022-12-18T23:21:39.478Z,3.00
2022-12-18T23:25:41.689Z,3.00
2022-12-18T23:29:43.909Z,2.96
2022-12-18T23:33:48.778Z,2.77
2022-12-18T23:38:00.127Z,2.72
2022-12-18T23:42:02.904Z,2.69
2022-12-18T23:46:19.603Z,2.67
2022-12-18T23:50:25.458Z,2.69
2022-12-18T23:54:33.283Z,2.63
2022-12-18T23:58:37.917Z,2.49
